Time;durP1;ratioP1;P1;durP2;ratioP2;P2;SDS_P1;SDS_P2;PMS_P1;PMS_P2;Temp;Humidity;BMP_temperature;BMP_pressure;BME280_temperature;BME280_humidity;BME280_pressure;Samples;Min_cycle;Max_cycle;Signal;HPM_P1;HPM_P2
2023/08/05 00:00:50;;;;;;;11.00;8.07;;;15.90;99.90;;;;;;5012006;28;20601;-67
2023/08/05 00:03:17;;;;;;;20.13;11.43;;;15.80;99.90;;;;;;5013532;28;20477;-68
2023/08/05 00:05:44;;;;;;;34.27;10.00;;;15.80;99.90;;;;;;5011618;28;20490;-67
2023/08/05 00:08:13;;;;;;;25.07;11.83;;;15.70;99.90;;;;;;5012319;28;20480;-68
2023/08/05 00:10:43;;;;;;;23.97;8.60;;;15.70;99.90;;;;;;5014932;28;20509;-68
2023/08/05 00:13:09;;;;;;;15.20;9.57;;;15.70;99.90;;;;;;5010929;28;20484;-67
2023/08/05 00:15:36;;;;;;;13.17;7.47;;;15.70;99.90;;;;;;5016907;28;20476;-68
2023/08/05 00:18:03;;;;;;;21.03;13.50;;;15.70;99.90;;;;;;5016651;28;20818;-69
2023/08/05 00:20:31;;;;;;;16.13;9.23;;;15.70;99.90;;;;;;5014936;28;21062;-68
2023/08/05 00:22:57;;;;;;;11.50;9.50;;;15.70;99.90;;;;;;5016476;28;20551;-67
2023/08/05 00:25:26;;;;;;;12.30;8.83;;;15.70;99.90;;;;;;5020750;28;20476;-68
2023/08/05 00:27:53;;;;;;;16.30;10.43;;;15.70;99.90;;;;;;5018484;28;21184;-68
2023/08/05 00:30:20;;;;;;;22.93;12.47;;;17.50;99.90;;;;;;5015491;28;20485;-69
2023/08/05 00:32:46;;;;;;;22.80;9.60;;;15.60;99.90;;;;;;5019079;28;20499;-66
2023/08/05 00:35:13;;;;;;;15.63;11.30;;;15.70;99.90;;;;;;5018416;28;20773;-67
2023/08/05 00:37:40;;;;;;;10.93;7.17;;;15.60;99.90;;;;;;5017848;28;20483;-67
2023/08/05 00:40:09;;;;;;;14.83;10.00;;;15.60;99.90;;;;;;5017936;28;20559;-68
2023/08/05 00:42:37;;;;;;;19.77;10.30;;;15.50;99.90;;;;;;5018687;28;20484;-69
2023/08/05 00:45:05;;;;;;;15.63;9.90;;;15.50;99.90;;;;;;5018529;28;20475;-68
2023/08/05 00:47:32;;;;;;;14.30;8.70;;;15.50;99.90;;;;;;5004500;28;20480;-69
2023/08/05 00:50:00;;;;;;;16.97;10.37;;;15.50;99.90;;;;;;5016041;28;20581;-68
2023/08/05 00:52:27;;;;;;;13.17;9.20;;;15.40;99.90;;;;;;5016661;28;20684;-68
2023/08/05 00:54:54;;;;;;;14.60;9.00;;;15.30;99.90;;;;;;5013843;28;21019;-68
2023/08/05 00:57:21;;;;;;;10.37;8.13;;;15.30;99.90;;;;;;5012863;28;20847;-68
2023/08/05 00:59:50;;;;;;;20.20;11.37;;;15.20;99.90;;;;;;5013870;28;20475;-67
2023/08/05 01:02:17;;;;;;;15.30;9.77;;;15.10;99.90;;;;;;5014418;28;20850;-68
2023/08/05 01:04:43;;;;;;;17.73;9.10;;;15.00;99.90;;;;;;5012369;28;21308;-68
2023/08/05 01:07:12;;;;;;;20.50;12.80;;;15.00;99.90;;;;;;5014427;28;20490;-68
2023/08/05 01:09:39;;;;;;;11.50;7.10;;;15.00;99.90;;;;;;5014297;28;20483;-68
2023/08/05 01:12:07;;;;;;;20.40;13.40;;;15.00;99.90;;;;;;5012259;28;20488;-66
2023/08/05 01:14:34;;;;;;;9.90;6.63;;;15.00;99.90;;;;;;5007387;28;20477;-67
2023/08/05 01:17:02;;;;;;;17.23;9.30;;;15.00;99.90;;;;;;5012675;28;20495;-68
2023/08/05 01:19:30;;;;;;;14.30;8.70;;;15.00;99.90;;;;;;5017607;28;20489;-68
2023/08/05 01:22:10;;;;;;;11.20;8.53;;;15.00;99.90;;;;;;5018931;28;20478;-68
2023/08/05 01:24:45;;;;;;;16.53;9.40;;;15.00;99.90;;;;;;5021494;28;20474;-69
2023/08/05 01:27:13;;;;;;;18.03;10.77;;;15.00;99.90;;;;;;5008618;28;20500;-68
2023/08/05 01:29:40;;;;;;;16.27;10.70;;;14.90;99.90;;;;;;5018418;28;20907;-69
2023/08/05 01:32:08;;;;;;;19.50;12.50;;;14.80;99.90;;;;;;5020251;28;20485;-67
2023/08/05 01:34:35;;;;;;;11.03;7.67;;;14.80;99.90;;;;;;5007898;28;20478;-69
2023/08/05 01:37:02;;;;;;;14.20;9.73;;;14.80;99.90;;;;;;5022551;28;20829;-68
2023/08/05 01:39:29;;;;;;;15.43;9.50;;;14.90;99.90;;;;;;5016478;28;20652;-69
2023/08/05 01:41:56;;;;;;;16.50;9.23;;;14.80;99.90;;;;;;5018591;28;20857;-68
2023/08/05 01:44:24;;;;;;;11.10;8.30;;;14.80;99.90;;;;;;5019728;28;20505;-69
2023/08/05 01:46:51;;;;;;;12.73;8.90;;;14.70;99.90;;;;;;5017630;28;20546;-69
2023/08/05 01:49:18;;;;;;;19.67;12.07;;;14.50;99.90;;;;;;5017890;28;20574;-68
2023/08/05 01:51:45;;;;;;;16.97;9.60;;;14.30;99.90;;;;;;5019093;28;20487;-68
2023/08/05 01:54:11;;;;;;;20.53;12.10;;;14.40;99.90;;;;;;5015291;28;20490;-68
2023/08/05 01:56:38;;;;;;;13.77;7.70;;;14.40;99.90;;;;;;5021486;28;20491;-68
2023/08/05 01:59:05;;;;;;;12.77;9.07;;;14.40;99.90;;;;;;5020674;28;20915;-69
2023/08/05 02:01:44;;;;;;;11.93;8.40;;;14.40;99.90;;;;;;5019055;28;20534;-67
2023/08/05 02:04:11;;;;;;;16.83;11.60;;;14.40;99.90;;;;;;5014741;28;20878;-68
2023/08/05 02:06:38;;;;;;;13.27;9.57;;;14.30;99.90;;;;;;5022008;28;20988;-68
2023/08/05 02:09:05;;;;;;;17.10;11.93;;;14.30;99.90;;;;;;5017446;28;20950;-67
2023/08/05 02:11:32;;;;;;;19.77;7.77;;;14.20;99.90;;;;;;5019211;28;21234;-69
2023/08/05 02:13:59;;;;;;;13.97;6.73;;;14.30;99.90;;;;;;5016441;28;20504;-68
2023/08/05 02:16:26;;;;;;;11.60;7.83;;;14.20;99.90;;;;;;5018694;28;20589;-67
2023/08/05 02:18:54;;;;;;;11.93;8.63;;;14.20;99.90;;;;;;5018567;28;20583;-67
2023/08/05 02:21:22;;;;;;;18.33;7.57;;;14.40;99.90;;;;;;5018930;28;20513;-68
2023/08/05 02:23:49;;;;;;;11.23;8.67;;;14.30;99.90;;;;;;5016325;28;20479;-67
2023/08/05 02:26:16;;;;;;;26.07;11.33;;;14.40;99.90;;;;;;5024971;28;20495;-68
2023/08/05 02:28:43;;;;;;;15.90;11.53;;;14.40;99.90;;;;;;5020512;28;20558;-67
2023/08/05 02:31:10;;;;;;;16.90;8.87;;;14.40;99.90;;;;;;5016986;28;20483;-68
2023/08/05 02:33:37;;;;;;;15.07;7.60;;;14.20;99.90;;;;;;5019556;28;20481;-68
2023/08/05 02:36:05;;;;;;;17.07;11.43;;;14.20;99.90;;;;;;5015962;28;20559;-67
2023/08/05 02:38:32;;;;;;;12.97;8.20;;;14.10;99.90;;;;;;5017817;28;20582;-67
2023/08/05 02:40:59;;;;;;;34.73;10.33;;;14.10;99.90;;;;;;5021765;28;20487;-68
2023/08/05 02:43:26;;;;;;;30.23;9.33;;;14.10;99.90;;;;;;5017323;28;20496;-68
2023/08/05 02:45:54;;;;;;;31.07;10.17;;;14.20;99.90;;;;;;5018592;28;20493;-68
2023/08/05 02:48:22;;;;;;;19.10;9.57;;;14.20;99.90;;;;;;5018121;28;21012;-68
2023/08/05 02:50:49;;;;;;;28.97;9.17;;;14.10;99.90;;;;;;5020135;28;20496;-69
2023/08/05 02:53:18;;;;;;;39.43;11.93;;;14.00;99.90;;;;;;5016504;28;20485;-68
2023/08/05 02:55:45;;;;;;;29.93;9.77;;;14.00;99.90;;;;;;5019145;28;20805;-68
2023/08/05 02:58:12;;;;;;;72.77;12.60;;;14.00;99.90;;;;;;5026379;28;20487;-69
2023/08/05 03:00:39;;;;;;;71.77;11.67;;;13.90;99.90;;;;;;5030512;28;20465;-69
2023/08/05 03:03:08;;;;;;;28.23;10.40;;;13.80;99.90;;;;;;5019353;28;20475;-67
2023/08/05 03:05:35;;;;;;;20.50;6.67;;;13.60;99.90;;;;;;5023502;28;20729;-68
2023/08/05 03:08:02;;;;;;;19.50;9.17;;;13.40;99.90;;;;;;5020211;28;20943;-67
2023/08/05 03:10:30;;;;;;;9.30;7.50;;;13.20;99.90;;;;;;5017617;28;20558;-66
2023/08/05 03:12:57;;;;;;;13.83;9.70;;;13.10;99.90;;;;;;5018080;28;21098;-67
2023/08/05 03:15:27;;;;;;;15.07;6.90;;;13.20;99.90;;;;;;5020186;28;20491;-68
2023/08/05 03:17:54;;;;;;;14.10;7.00;;;13.30;99.90;;;;;;5020938;28;20557;-67
2023/08/05 03:20:27;;;;;;;12.13;8.30;;;13.30;99.90;;;;;;5021234;28;20921;-68
2023/08/05 03:22:54;;;;;;;28.47;10.67;;;13.40;99.90;;;;;;5021203;28;20481;-68
2023/08/05 03:25:21;;;;;;;56.40;10.77;;;13.40;99.90;;;;;;5021108;28;21031;-69
2023/08/05 03:27:50;;;;;;;22.90;9.83;;;13.30;99.90;;;;;;5019851;28;20515;-68
2023/08/05 03:30:18;;;;;;;15.80;9.93;;;13.30;99.90;;;;;;5020358;28;20488;-69
2023/08/05 03:32:47;;;;;;;11.30;8.20;;;13.20;99.90;;;;;;5021552;28;20485;-68
2023/08/05 03:35:14;;;;;;;33.97;11.23;;;13.20;99.90;;;;;;5019420;28;20600;-67
2023/08/05 03:37:41;;;;;;;12.07;8.07;;;13.10;99.90;;;;;;5018848;28;20820;-67
2023/08/05 03:40:09;;;;;;;17.27;11.60;;;13.00;99.90;;;;;;5016554;28;20486;-68
2023/08/05 03:42:36;;;;;;;12.83;8.70;;;12.90;99.90;;;;;;5016239;28;20470;-67
2023/08/05 03:45:05;;;;;;;15.37;9.80;;;12.70;99.90;;;;;;5015038;28;20835;-68
2023/08/05 03:47:32;;;;;;;16.00;10.30;;;12.60;99.90;;;;;;5021024;28;20861;-67
2023/08/05 03:49:59;;;;;;;21.33;11.53;;;12.60;99.90;;;;;;5006579;28;21238;-67
2023/08/05 03:52:27;;;;;;;17.27;9.77;;;12.50;99.90;;;;;;5018461;28;20846;-67
2023/08/05 03:54:54;;;;;;;14.70;8.57;;;12.50;99.90;;;;;;5014703;28;20474;-67
2023/08/05 03:57:21;;;;;;;15.03;10.10;;;12.50;99.90;;;;;;5019889;28;21029;-67
2023/08/05 03:59:49;;;;;;;16.07;11.00;;;12.50;99.90;;;;;;5016902;28;20486;-67
2023/08/05 04:02:18;;;;;;;18.73;11.13;;;12.50;99.90;;;;;;5013807;28;21124;-67
2023/08/05 04:04:45;;;;;;;16.30;10.97;;;12.50;99.90;;;;;;5027277;28;20493;-67
2023/08/05 04:07:12;;;;;;;20.33;12.43;;;12.60;99.90;;;;;;5019366;28;20484;-67
2023/08/05 04:09:39;;;;;;;14.63;9.03;;;12.60;99.90;;;;;;5017538;28;20571;-67
2023/08/05 04:12:09;;;;;;;22.33;10.80;;;12.60;99.90;;;;;;5018144;28;20505;-67
2023/08/05 04:14:37;;;;;;;16.10;9.90;;;12.70;99.90;;;;;;5015438;28;20487;-67
2023/08/05 04:17:04;;;;;;;17.60;10.33;;;12.90;99.90;;;;;;5017421;28;20483;-67
2023/08/05 04:19:33;;;;;;;15.53;10.03;;;12.90;99.90;;;;;;5017048;28;20480;-68
2023/08/05 04:22:01;;;;;;;13.37;8.57;;;13.00;99.90;;;;;;5021653;28;20580;-67
2023/08/05 04:24:29;;;;;;;23.13;10.90;;;12.90;99.90;;;;;;5016912;28;20578;-67
2023/08/05 04:26:56;;;;;;;11.00;7.43;;;12.90;99.90;;;;;;5018409;28;20489;-67
2023/08/05 04:29:23;;;;;;;14.57;8.50;;;12.90;99.90;;;;;;5016840;28;20470;-68
2023/08/05 04:31:51;;;;;;;16.60;9.80;;;12.90;99.90;;;;;;5016727;28;20482;-68
2023/08/05 04:34:18;;;;;;;14.30;9.50;;;12.90;99.90;;;;;;5018971;28;20549;-68
2023/08/05 04:36:49;;;;;;;15.27;9.37;;;12.90;99.90;;;;;;5018780;28;20488;-67
2023/08/05 04:39:17;;;;;;;14.20;8.80;;;12.90;99.90;;;;;;5019441;28;20489;-68
2023/08/05 04:41:44;;;;;;;17.57;9.23;;;12.90;99.90;;;;;;5014979;28;20775;-68
2023/08/05 04:44:11;;;;;;;17.90;11.30;;;13.00;99.90;;;;;;5027991;28;20558;-67
2023/08/05 04:46:38;;;;;;;14.50;8.43;;;13.10;99.90;;;;;;5018481;28;20471;-67
2023/08/05 04:49:08;;;;;;;17.53;11.60;;;13.20;99.90;;;;;;5018357;28;20483;-68
2023/08/05 04:51:35;;;;;;;13.30;8.40;;;13.20;99.90;;;;;;5019970;28;20992;-68
2023/08/05 04:54:03;;;;;;;16.57;9.57;;;13.20;99.90;;;;;;5022426;28;20667;-67
2023/08/05 04:56:30;;;;;;;12.83;8.00;;;13.30;99.90;;;;;;5010033;28;20528;-67
2023/08/05 04:58:57;;;;;;;12.53;8.73;;;13.30;99.90;;;;;;5022947;28;20479;-67
2023/08/05 05:01:24;;;;;;;12.97;8.27;;;13.30;99.90;;;;;;5022100;28;20481;-67
2023/08/05 05:03:52;;;;;;;14.00;6.63;;;13.40;99.90;;;;;;5021100;28;20598;-67
2023/08/05 05:06:19;;;;;;;13.70;9.10;;;13.40;99.90;;;;;;5019566;28;21379;-67
2023/08/05 05:08:46;;;;;;;17.43;12.13;;;13.40;99.90;;;;;;5021070;28;20471;-67
2023/08/05 05:11:14;;;;;;;22.17;13.13;;;12.30;99.90;;;;;;5020604;28;20833;-67
2023/08/05 05:13:43;;;;;;;18.60;9.47;;;13.30;99.90;;;;;;5024494;28;20490;-66
2023/08/05 05:16:11;;;;;;;19.53;12.13;;;13.20;99.90;;;;;;5021130;28;20492;-66
2023/08/05 05:18:38;;;;;;;14.30;10.13;;;13.30;99.90;;;;;;5020843;28;20482;-67
2023/08/05 05:21:05;;;;;;;16.20;10.73;;;13.20;99.90;;;;;;5019121;28;20570;-67
2023/08/05 05:23:31;;;;;;;13.77;8.83;;;13.30;99.90;;;;;;5020882;28;20554;-67
2023/08/05 05:25:58;;;;;;;17.90;10.17;;;13.30;99.90;;;;;;5020650;28;20569;-67
2023/08/05 05:28:28;;;;;;;19.40;11.20;;;13.40;99.90;;;;;;5017930;28;20508;-67
2023/08/05 05:30:54;;;;;;;20.63;11.33;;;13.50;99.90;;;;;;5021735;28;20480;-67
2023/08/05 05:33:21;;;;;;;16.13;11.10;;;13.50;99.90;;;;;;5021117;28;20485;-67
2023/08/05 05:35:50;;;;;;;22.53;11.60;;;13.50;99.90;;;;;;5022892;28;20513;-67
2023/08/05 05:38:17;;;;;;;25.97;14.47;;;13.70;99.90;;;;;;5018046;28;20503;-67
2023/08/05 05:40:44;;;;;;;23.10;12.57;;;13.90;99.90;;;;;;5020839;28;20481;-67
2023/08/05 05:43:11;;;;;;;23.30;14.40;;;14.00;99.90;;;;;;5017784;28;20554;-67
2023/08/05 05:45:39;;;;;;;20.37;12.37;;;14.20;99.90;;;;;;5019275;28;20575;-67
2023/08/05 05:48:06;;;;;;;26.13;17.00;;;14.30;99.90;;;;;;5016052;28;20983;-67
2023/08/05 05:50:33;;;;;;;25.27;12.40;;;14.40;99.90;;;;;;5022644;28;20466;-67
2023/08/05 05:53:00;;;;;;;24.63;13.50;;;14.50;99.90;;;;;;5013898;28;20631;-67
2023/08/05 05:55:27;;;;;;;20.10;13.20;;;14.40;99.90;;;;;;5021495;28;20570;-67
2023/08/05 05:57:54;;;;;;;20.93;13.60;;;14.40;99.90;;;;;;5016588;28;20496;-67
2023/08/05 06:00:21;;;;;;;17.63;11.90;;;14.40;99.90;;;;;;5019728;28;20482;-68
2023/08/05 06:02:49;;;;;;;19.90;14.30;;;14.40;99.90;;;;;;5019741;28;20456;-67
2023/08/05 06:05:17;;;;;;;24.63;16.13;;;14.50;99.90;;;;;;5020756;28;21008;-66
2023/08/05 06:07:44;;;;;;;23.20;13.83;;;12.60;99.90;;;;;;5030552;28;21223;-67
2023/08/05 06:10:11;;;;;;;29.40;18.50;;;14.60;99.90;;;;;;5023952;28;20506;-67
2023/08/05 06:12:38;;;;;;;32.30;16.67;;;14.60;99.90;;;;;;5020058;28;20558;-67
2023/08/05 06:15:07;;;;;;;47.97;19.17;;;14.50;99.90;;;;;;5024040;28;20507;-66
2023/08/05 06:17:34;;;;;;;34.00;16.90;;;14.50;99.90;;;;;;5021394;28;20973;-67
2023/08/05 06:20:03;;;;;;;38.10;21.13;;;14.50;99.90;;;;;;5018346;28;20485;-66
2023/08/05 06:22:30;;;;;;;33.27;18.87;;;14.50;99.90;;;;;;5020924;28;20845;-66
2023/08/05 06:24:57;;;;;;;32.03;17.00;;;14.60;99.90;;;;;;5020896;28;20652;-67
2023/08/05 06:27:24;;;;;;;34.40;17.77;;;14.70;99.90;;;;;;5024487;28;20839;-67
2023/08/05 06:29:51;;;;;;;37.23;20.60;;;14.70;99.90;;;;;;5019036;28;20490;-66
2023/08/05 06:32:18;;;;;;;36.70;17.80;;;14.80;99.90;;;;;;5017815;28;20773;-66
2023/08/05 06:34:45;;;;;;;38.23;21.20;;;14.80;99.90;;;;;;5031371;28;20844;-67
2023/08/05 06:37:13;;;;;;;33.03;20.33;;;14.90;99.90;;;;;;5020480;28;20477;-66
2023/08/05 06:39:40;;;;;;;38.00;21.73;;;14.90;99.90;;;;;;5020866;28;20495;-66
2023/08/05 06:42:07;;;;;;;30.47;18.70;;;14.90;99.90;;;;;;5021012;28;20703;-68
2023/08/05 06:44:37;;;;;;;37.10;20.57;;;15.00;99.90;;;;;;5025315;28;20465;-68
2023/08/05 06:47:04;;;;;;;34.63;22.30;;;15.10;99.90;;;;;;5015404;28;20484;-67
2023/08/05 06:49:31;;;;;;;34.70;18.20;;;15.10;99.90;;;;;;5018896;28;20472;-67
2023/08/05 06:51:58;;;;;;;35.53;20.53;;;15.10;99.90;;;;;;5021350;28;20573;-67
2023/08/05 06:54:26;;;;;;;30.60;18.87;;;15.10;99.90;;;;;;5020039;28;21002;-66
2023/08/05 06:56:53;;;;;;;29.80;18.47;;;15.10;99.90;;;;;;5025740;28;20471;-68
2023/08/05 06:59:20;;;;;;;27.67;18.67;;;15.00;99.90;;;;;;5020275;28;20486;-66
2023/08/05 07:01:46;;;;;;;28.20;17.67;;;15.10;99.90;;;;;;5026931;28;20517;-67
2023/08/05 07:04:14;;;;;;;27.83;18.90;;;15.20;99.90;;;;;;5022747;28;20491;-68
2023/08/05 07:06:41;;;;;;;29.07;19.90;;;15.20;99.90;;;;;;5023662;28;20464;-68
2023/08/05 07:09:08;;;;;;;32.87;21.50;;;15.20;99.90;;;;;;5021225;28;20922;-68
2023/08/05 07:11:36;;;;;;;26.80;18.70;;;15.20;99.90;;;;;;5022878;28;20479;-69
2023/08/05 07:14:03;;;;;;;29.70;22.20;;;15.20;99.90;;;;;;5020612;28;20488;-67
2023/08/05 07:16:30;;;;;;;32.50;17.97;;;15.20;99.90;;;;;;5021194;28;20530;-68
2023/08/05 07:18:57;;;;;;;33.60;21.77;;;15.40;99.90;;;;;;5023538;28;20479;-69
2023/08/05 07:21:24;;;;;;;29.97;18.47;;;15.50;99.90;;;;;;5021684;28;20479;-68
2023/08/05 07:23:51;;;;;;;29.80;18.47;;;15.60;99.90;;;;;;5024443;28;20482;-68
2023/08/05 07:26:18;;;;;;;30.77;18.57;;;15.70;99.90;;;;;;5022971;28;20482;-68
2023/08/05 07:28:48;;;;;;;31.20;20.27;;;15.70;99.90;;;;;;5026346;28;20490;-68
2023/08/05 07:31:16;;;;;;;30.40;21.23;;;15.80;99.90;;;;;;5022559;28;20476;-69
2023/08/05 07:33:46;;;;;;;28.80;18.57;;;15.80;99.90;;;;;;5026191;28;20486;-68
2023/08/05 07:36:15;;;;;;;30.07;20.30;;;16.00;99.90;;;;;;5014997;28;20483;-68
2023/08/05 07:38:44;;;;;;;24.37;18.47;;;16.10;99.90;;;;;;5022646;28;20475;-66
2023/08/05 07:41:12;;;;;;;28.47;20.40;;;16.10;99.90;;;;;;5022812;28;20556;-68
2023/08/05 07:43:39;;;;;;;28.03;17.67;;;16.10;99.90;;;;;;5023179;28;21003;-67
2023/08/05 07:46:08;;;;;;;25.50;18.97;;;16.20;99.90;;;;;;5018639;28;20519;-68
2023/08/05 07:48:36;;;;;;;24.53;17.50;;;16.20;99.90;;;;;;5022178;28;20481;-68
2023/08/05 07:51:05;;;;;;;27.40;18.40;;;16.20;99.90;;;;;;5017553;28;20815;-67
2023/08/05 07:53:31;;;;;;;29.37;23.20;;;16.30;99.90;;;;;;5010669;28;21524;-69
2023/08/05 07:55:58;;;;;;;24.40;18.40;;;16.40;99.90;;;;;;5018373;28;21000;-68
2023/08/05 07:58:26;;;;;;;25.83;18.40;;;16.40;99.90;;;;;;5022074;28;20583;-68
2023/08/05 08:00:56;;;;;;;25.33;19.13;;;16.40;99.90;;;;;;5019289;28;20468;-67
2023/08/05 08:03:28;;;;;;;22.27;17.13;;;16.50;99.90;;;;;;5016421;28;20492;-68
2023/08/05 08:05:55;;;;;;;21.10;16.77;;;16.50;99.90;;;;;;5015066;28;20801;-67
2023/08/05 08:08:22;;;;;;;25.53;17.17;;;16.50;99.90;;;;;;5027816;28;20483;-68
2023/08/05 08:10:49;;;;;;;24.10;18.73;;;16.60;99.90;;;;;;5018896;28;20493;-69
2023/08/05 08:13:16;;;;;;;25.83;20.23;;;16.70;99.90;;;;;;5020385;28;21023;-68
2023/08/05 08:15:43;;;;;;;22.40;16.53;;;16.80;99.90;;;;;;5020963;28;20604;-68
2023/08/05 08:18:10;;;;;;;22.53;16.93;;;16.80;99.90;;;;;;5018243;28;20487;-67
2023/08/05 08:20:38;;;;;;;19.87;16.97;;;16.80;99.90;;;;;;5019629;28;20473;-68
2023/08/05 08:23:05;;;;;;;24.43;19.63;;;16.90;99.90;;;;;;5017075;28;20974;-66
2023/08/05 08:25:32;;;;;;;21.93;16.83;;;17.00;99.90;;;;;;5022311;28;20560;-68
2023/08/05 08:27:58;;;;;;;20.10;16.17;;;17.20;99.90;;;;;;5022034;28;21438;-69
2023/08/05 08:30:25;;;;;;;21.83;16.63;;;17.60;99.90;;;;;;5024132;28;20573;-67
2023/08/05 08:32:52;;;;;;;25.63;17.70;;;17.60;99.90;;;;;;5021151;28;21359;-66
2023/08/05 08:35:19;;;;;;;20.90;16.53;;;17.70;99.90;;;;;;5019862;28;20520;-68
2023/08/05 08:37:48;;;;;;;16.13;12.73;;;17.80;99.90;;;;;;5020489;28;20619;-68
2023/08/05 08:40:15;;;;;;;19.67;16.00;;;17.90;99.90;;;;;;5019706;28;20472;-67
2023/08/05 08:42:43;;;;;;;18.70;15.90;;;18.00;99.90;;;;;;5020705;28;20480;-67
2023/08/05 08:45:12;;;;;;;19.20;16.70;;;18.00;99.90;;;;;;5019670;28;20485;-67
2023/08/05 08:47:39;;;;;;;15.80;14.10;;;18.00;99.90;;;;;;5016824;28;20530;-67
2023/08/05 08:50:07;;;;;;;18.47;16.30;;;18.30;99.90;;;;;;5019424;28;20487;-67
2023/08/05 08:52:36;;;;;;;17.47;12.83;;;18.40;99.90;;;;;;5004523;28;20481;-67
2023/08/05 08:55:05;;;;;;;16.87;13.87;;;18.40;99.90;;;;;;5020583;28;20473;-67
2023/08/05 08:57:32;;;;;;;17.20;13.40;;;18.50;99.90;;;;;;5021680;28;20468;-67
2023/08/05 08:59:59;;;;;;;16.03;14.27;;;18.70;99.90;;;;;;5021807;28;21000;-67
2023/08/05 09:02:27;;;;;;;15.17;13.27;;;18.70;99.90;;;;;;5019282;28;20478;-68
2023/08/05 09:04:54;;;;;;;16.47;14.77;;;18.80;99.90;;;;;;5013593;28;20621;-67
2023/08/05 09:07:25;;;;;;;15.53;12.80;;;19.00;99.90;;;;;;5028718;28;20450;-67
2023/08/05 09:09:53;;;;;;;20.30;13.83;;;19.20;99.90;;;;;;5021630;28;20481;-67
2023/08/05 09:12:21;;;;;;;13.70;12.23;;;19.10;99.90;;;;;;5019733;28;20494;-67
2023/08/05 09:14:53;;;;;;;14.00;12.53;;;19.20;99.90;;;;;;5016253;28;20477;-67
2023/08/05 09:17:20;;;;;;;17.37;13.20;;;19.10;99.90;;;;;;5019377;28;21014;-67
2023/08/05 09:19:46;;;;;;;18.20;13.03;;;19.30;99.90;;;;;;5020772;28;21064;-67
2023/08/05 09:22:13;;;;;;;17.47;11.83;;;19.80;99.90;;;;;;5018716;28;20542;-67
2023/08/05 09:24:40;;;;;;;19.27;11.37;;;19.50;99.90;;;;;;5021241;28;20499;-67
2023/08/05 09:27:07;;;;;;;16.30;14.60;;;19.70;99.90;;;;;;5019634;28;20500;-67
2023/08/05 09:29:36;;;;;;;11.53;9.80;;;19.70;99.90;;;;;;5013968;28;20473;-67
2023/08/05 09:32:04;;;;;;;13.23;11.90;;;19.90;99.90;;;;;;5018134;28;20552;-67
2023/08/05 09:34:36;;;;;;;13.13;10.50;;;19.90;99.90;;;;;;5018518;28;20490;-67
2023/08/05 09:37:04;;;;;;;12.33;10.67;;;20.20;99.90;;;;;;5017898;28;20899;-68
2023/08/05 09:39:45;;;;;;;9.90;8.90;;;20.30;99.90;;;;;;5016762;28;20539;-67
2023/08/05 09:42:21;;;;;;;13.23;11.30;;;20.30;99.90;;;;;;5012680;28;20497;-68
2023/08/05 09:44:52;;;;;;;10.47;9.47;;;20.30;99.90;;;;;;5019984;28;20991;-67
2023/08/05 09:47:23;;;;;;;11.00;8.40;;;20.30;99.90;;;;;;5024638;28;21180;-67
2023/08/05 09:49:51;;;;;;;10.57;9.47;;;20.20;99.90;;;;;;5020512;28;20480;-68
2023/08/05 09:52:20;;;;;;;14.07;10.43;;;20.30;99.90;;;;;;5024313;28;21308;-68
2023/08/05 09:54:54;;;;;;;9.87;8.77;;;20.30;99.90;;;;;;5014223;28;20489;-67
2023/08/05 09:57:22;;;;;;;11.57;9.90;;;20.40;99.90;;;;;;5033120;28;20562;-67
2023/08/05 09:59:53;;;;;;;10.53;9.33;;;20.40;99.90;;;;;;5019197;28;20559;-67
2023/08/05 10:02:25;;;;;;;9.87;8.50;;;20.70;99.90;;;;;;5020155;28;21007;-67
2023/08/05 10:04:54;;;;;;;9.83;8.93;;;20.80;99.90;;;;;;5019887;28;20506;-67
2023/08/05 10:07:22;;;;;;;14.37;9.37;;;20.70;99.90;;;;;;5025730;28;20965;-67
2023/08/05 10:09:50;;;;;;;12.93;9.30;;;20.70;99.90;;;;;;5027439;28;20458;-67
2023/08/05 10:12:19;;;;;;;10.80;9.70;;;21.00;99.90;;;;;;5020193;28;20493;-67
2023/08/05 10:14:47;;;;;;;9.33;8.30;;;21.00;99.90;;;;;;5022339;28;20937;-67
2023/08/05 10:17:16;;;;;;;13.27;10.80;;;21.00;99.90;;;;;;5027466;28;20477;-67
2023/08/05 10:19:47;;;;;;;8.33;7.63;;;21.10;99.90;;;;;;5014464;28;20480;-66
2023/08/05 10:22:14;;;;;;;10.50;9.60;;;21.40;99.90;;;;;;5013018;28;20796;-66
2023/08/05 10:24:51;;;;;;;12.10;8.67;;;21.60;99.90;;;;;;5021463;28;20574;-67
2023/08/05 10:27:18;;;;;;;8.73;8.03;;;21.60;99.90;;;;;;5016069;28;20910;-67
2023/08/05 10:29:53;;;;;;;8.73;7.70;;;21.60;99.90;;;;;;5024795;28;20449;-67
2023/08/05 10:32:29;;;;;;;10.43;7.40;;;21.50;99.90;;;;;;5009958;28;20959;-67
2023/08/05 10:35:27;;;;;;;9.43;8.53;;;21.40;99.90;;;;;;5023539;28;20445;-68
2023/08/05 10:38:10;;;;;;;9.60;8.70;;;21.50;99.90;;;;;;5016736;28;20529;-67
2023/08/05 10:40:48;;;;;;;8.70;7.90;;;21.70;99.90;;;;;;5021633;28;20528;-67
2023/08/05 10:43:38;;;;;;;11.60;9.70;;;21.40;99.90;;;;;;5021372;28;20875;-67
2023/08/05 10:46:12;;;;;;;9.83;9.03;;;21.30;99.90;;;;;;5019631;28;20470;-67
2023/08/05 10:48:42;;;;;;;8.20;7.50;;;21.40;99.90;;;;;;5019117;28;20491;-67
2023/08/05 10:51:11;;;;;;;11.40;10.33;;;21.60;99.90;;;;;;5018852;28;20481;-67
2023/08/05 10:53:39;;;;;;;7.77;7.07;;;21.90;99.90;;;;;;5027529;28;20488;-66
2023/08/05 10:56:11;;;;;;;9.63;8.83;;;22.10;99.90;;;;;;5022578;28;20464;-67
2023/08/05 10:58:43;;;;;;;8.03;7.40;;;22.50;99.90;;;;;;5025243;28;22010;-66
2023/08/05 11:01:10;;;;;;;10.73;9.87;;;22.70;99.90;;;;;;5013264;28;20854;-67
2023/08/05 11:03:42;;;;;;;8.73;8.03;;;22.90;99.90;;;;;;5037517;28;20505;-67
2023/08/05 11:06:10;;;;;;;9.97;9.00;;;22.80;99.90;;;;;;5021984;28;20853;-66
2023/08/05 11:08:38;;;;;;;7.77;6.83;;;22.80;99.40;;;;;;5023781;28;20450;-66
2023/08/05 11:11:06;;;;;;;8.83;8.10;;;22.80;98.90;;;;;;5018671;28;20786;-66
2023/08/05 11:13:35;;;;;;;8.27;7.47;;;22.80;99.40;;;;;;5024913;28;20470;-67
2023/08/05 11:16:08;;;;;;;10.57;8.57;;;22.70;98.50;;;;;;5019097;28;20546;-67
2023/08/05 11:18:36;;;;;;;8.53;6.83;;;22.40;98.80;;;;;;5022037;28;20533;-67
2023/08/05 11:21:06;;;;;;;11.40;7.10;;;22.50;98.70;;;;;;5018452;28;20823;-67
2023/08/05 11:23:35;;;;;;;8.40;7.60;;;22.60;99.30;;;;;;5021119;28;20471;-67
2023/08/05 11:26:02;;;;;;;8.33;7.50;;;22.60;97.90;;;;;;5020306;28;20976;-66
2023/08/05 11:28:30;;;;;;;7.70;7.10;;;22.70;99.90;;;;;;5018756;28;20996;-67
2023/08/05 11:30:57;;;;;;;7.30;6.67;;;22.90;98.60;;;;;;5019356;28;20461;-67
2023/08/05 11:33:24;;;;;;;7.60;6.90;;;22.90;99.50;;;;;;5020102;28;20700;-67
2023/08/05 11:35:53;;;;;;;6.10;5.60;;;22.80;97.50;;;;;;5020059;28;20450;-67
2023/08/05 11:38:23;;;;;;;6.60;6.00;;;23.00;98.00;;;;;;5016865;28;20462;-66
2023/08/05 11:40:51;;;;;;;9.33;6.03;;;23.00;99.40;;;;;;5020993;28;20540;-67
2023/08/05 11:43:20;;;;;;;6.90;6.20;;;22.90;98.20;;;;;;5021138;28;20480;-67
2023/08/05 11:45:48;;;;;;;6.30;5.80;;;22.80;97.70;;;;;;5019566;28;20454;-69
2023/08/05 11:48:22;;;;;;;6.97;5.70;;;23.20;97.20;;;;;;5021041;28;20941;-66
2023/08/05 11:50:50;;;;;;;5.60;5.20;;;23.30;96.00;;;;;;5022326;28;20525;-67
2023/08/05 11:53:19;;;;;;;6.37;5.80;;;23.50;96.60;;;;;;5005779;28;20627;-68
2023/08/05 11:55:47;;;;;;;4.53;4.13;;;23.60;96.30;;;;;;5020423;28;20450;-67
2023/08/05 11:58:15;;;;;;;5.80;5.30;;;23.60;96.10;;;;;;5020970;28;20511;-66
2023/08/05 12:00:47;;;;;;;3.87;3.57;;;23.10;95.50;;;;;;5022578;28;20895;-67
2023/08/05 12:03:15;;;;;;;7.07;6.50;;;23.10;95.50;;;;;;5012026;28;20478;-66
2023/08/05 12:05:44;;;;;;;5.53;5.00;;;23.20;96.70;;;;;;5006787;28;21093;-66
2023/08/05 12:08:11;;;;;;;5.70;5.30;;;23.20;96.60;;;;;;5011696;28;20937;-67
2023/08/05 12:10:38;;;;;;;5.33;4.67;;;23.20;96.50;;;;;;5009706;28;20824;-67
2023/08/05 12:13:08;;;;;;;7.77;7.17;;;23.40;95.60;;;;;;5014282;28;20503;-66
2023/08/05 12:15:36;;;;;;;5.90;5.50;;;23.20;96.50;;;;;;5004343;28;20696;-66
2023/08/05 12:18:05;;;;;;;6.47;6.00;;;23.50;97.20;;;;;;5010610;28;20534;-66
2023/08/05 12:20:34;;;;;;;5.07;4.60;;;23.60;95.20;;;;;;5012133;28;20482;-66
2023/08/05 12:23:02;;;;;;;5.23;4.63;;;23.50;94.30;;;;;;5007362;28;20862;-66
2023/08/05 12:25:30;;;;;;;5.60;5.20;;;23.60;94.10;;;;;;5000976;28;20441;-66
2023/08/05 12:27:58;;;;;;;6.80;6.20;;;23.50;95.00;;;;;;5010555;28;20473;-66
2023/08/05 12:30:27;;;;;;;10.30;8.33;;;23.00;96.90;;;;;;5005170;28;20784;-65
2023/08/05 12:32:57;;;;;;;9.50;7.03;;;23.10;97.50;;;;;;5009019;28;20899;-66
2023/08/05 12:35:24;;;;;;;7.23;6.73;;;23.00;98.30;;;;;;5006378;28;21354;-65
2023/08/05 12:37:50;;;;;;;7.17;6.57;;;23.00;98.60;;;;;;5009952;28;21304;-66